sensor_id;sensor_type;location;lat;lon;timestamp;pressure;altitude;pressure_sealevel;temperature;humidity
69245;BME280;56357;52.304;4.870;2024-01-06T00:00:02;100674.13;;;17.76;60.08
69245;BME280;56357;52.304;4.870;2024-01-06T00:02:29;100668.53;;;17.76;58.63
69245;BME280;56357;52.304;4.870;2024-01-06T00:04:55;100671.66;;;17.69;59.21
69245;BME280;56357;52.304;4.870;2024-01-06T00:07:21;100679.19;;;17.64;59.41
69245;BME280;56357;52.304;4.870;2024-01-06T00:09:48;100680.59;;;17.66;59.09
69245;BME280;56357;52.304;4.870;2024-01-06T00:12:16;100669.13;;;17.73;59.45
69245;BME280;56357;52.304;4.870;2024-01-06T00:14:43;100669.97;;;17.68;59.00
69245;BME280;56357;52.304;4.870;2024-01-06T00:17:11;100678.91;;;17.70;58.46
69245;BME280;56357;52.304;4.870;2024-01-06T00:19:37;100678.91;;;17.60;59.20
69245;BME280;56357;52.304;4.870;2024-01-06T00:22:04;100685.91;;;17.68;59.18
69245;BME280;56357;52.304;4.870;2024-01-06T00:24:30;100685.34;;;17.66;58.17
69245;BME280;56357;52.304;4.870;2024-01-06T00:26:57;100680.88;;;17.60;59.65
69245;BME280;56357;52.304;4.870;2024-01-06T00:29:23;100681.16;;;17.58;59.29
69245;BME280;56357;52.304;4.870;2024-01-06T00:31:49;100687.31;;;17.50;59.34
69245;BME280;56357;52.304;4.870;2024-01-06T00:34:16;100692.63;;;17.62;59.22
69245;BME280;56357;52.304;4.870;2024-01-06T00:36:42;100684.25;;;17.67;59.12
69245;BME280;56357;52.304;4.870;2024-01-06T00:39:08;100686.19;;;17.56;58.68
69245;BME280;56357;52.304;4.870;2024-01-06T00:41:35;100685.09;;;17.57;58.59
69245;BME280;56357;52.304;4.870;2024-01-06T00:44:01;100691.81;;;17.66;59.04
69245;BME280;56357;52.304;4.870;2024-01-06T00:46:27;100690.13;;;17.50;59.86
69245;BME280;56357;52.304;4.870;2024-01-06T00:48:54;100704.38;;;17.44;59.06
69245;BME280;56357;52.304;4.870;2024-01-06T00:51:20;100696.84;;;17.49;59.33
69245;BME280;56357;52.304;4.870;2024-01-06T00:53:47;100697.72;;;17.50;59.15
69245;BME280;56357;52.304;4.870;2024-01-06T00:56:13;100697.13;;;17.63;58.87
69245;BME280;56357;52.304;4.870;2024-01-06T00:58:39;100707.75;;;17.46;58.48
69245;BME280;56357;52.304;4.870;2024-01-06T01:01:06;100715.91;;;17.57;58.60
69245;BME280;56357;52.304;4.870;2024-01-06T01:03:32;100717.59;;;17.48;59.36
69245;BME280;56357;52.304;4.870;2024-01-06T01:05:59;100722.06;;;17.49;58.74
69245;BME280;56357;52.304;4.870;2024-01-06T01:08:25;100717.59;;;17.53;58.46
69245;BME280;56357;52.304;4.870;2024-01-06T01:10:51;100737.69;;;17.45;58.10
69245;BME280;56357;52.304;4.870;2024-01-06T01:13:18;100731.53;;;17.43;59.10
69245;BME280;56357;52.304;4.870;2024-01-06T01:15:44;100733.53;;;17.53;59.66
69245;BME280;56357;52.304;4.870;2024-01-06T01:18:10;100736.28;;;17.42;57.71
69245;BME280;56357;52.304;4.870;2024-01-06T01:20:37;100752.53;;;17.46;59.32
69245;BME280;56357;52.304;4.870;2024-01-06T01:23:03;100748.63;;;17.42;59.16
69245;BME280;56357;52.304;4.870;2024-01-06T01:25:29;100750.31;;;17.48;57.95
69245;BME280;56357;52.304;4.870;2024-01-06T01:27:56;100766.81;;;17.39;59.00
69245;BME280;56357;52.304;4.870;2024-01-06T01:30:22;100767.94;;;17.38;58.04
69245;BME280;56357;52.304;4.870;2024-01-06T01:32:48;100775.22;;;17.44;58.99
69245;BME280;56357;52.304;4.870;2024-01-06T01:35:15;100778.63;;;17.51;58.68
69245;BME280;56357;52.304;4.870;2024-01-06T01:37:41;100782.22;;;17.47;58.78
69245;BME280;56357;52.304;4.870;2024-01-06T01:40:08;100791.47;;;17.47;58.86
69245;BME280;56357;52.304;4.870;2024-01-06T01:42:34;100797.88;;;17.42;58.36
69245;BME280;56357;52.304;4.870;2024-01-06T01:45:01;100801.53;;;17.43;58.85
69245;BME280;56357;52.304;4.870;2024-01-06T01:47:27;100802.09;;;17.40;58.40
69245;BME280;56357;52.304;4.870;2024-01-06T01:49:54;100806.56;;;17.36;58.08
69245;BME280;56357;52.304;4.870;2024-01-06T01:52:21;100803.78;;;17.46;58.60
69245;BME280;56357;52.304;4.870;2024-01-06T01:54:48;100813.84;;;17.37;58.72
69245;BME280;56357;52.304;4.870;2024-01-06T01:57:15;100818.09;;;17.50;58.23
69245;BME280;56357;52.304;4.870;2024-01-06T01:59:41;100814.38;;;17.29;58.64
69245;BME280;56357;52.304;4.870;2024-01-06T02:02:08;100803.78;;;17.36;57.91
69245;BME280;56357;52.304;4.870;2024-01-06T02:04:35;100818.31;;;17.38;58.30
69245;BME280;56357;52.304;4.870;2024-01-06T02:07:01;100819.72;;;17.35;58.80
69245;BME280;56357;52.304;4.870;2024-01-06T02:09:28;100817.16;;;17.29;59.22
69245;BME280;56357;52.304;4.870;2024-01-06T02:11:56;100822.75;;;17.29;58.48
69245;BME280;56357;52.304;4.870;2024-01-06T02:14:23;100821.09;;;17.33;58.30
69245;BME280;56357;52.304;4.870;2024-01-06T02:16:49;100830.91;;;17.30;58.42
69245;BME280;56357;52.304;4.870;2024-01-06T02:19:16;100828.69;;;17.37;58.04
69245;BME280;56357;52.304;4.870;2024-01-06T02:21:43;100839.88;;;17.32;57.84
69245;BME280;56357;52.304;4.870;2024-01-06T02:24:10;100837.88;;;17.33;57.68
69245;BME280;56357;52.304;4.870;2024-01-06T02:26:36;100841.53;;;17.33;58.66
69245;BME280;56357;52.304;4.870;2024-01-06T02:29:03;100836.47;;;17.20;58.13
69245;BME280;56357;52.304;4.870;2024-01-06T02:31:29;100851.31;;;17.31;57.66
69245;BME280;56357;52.304;4.870;2024-01-06T02:33:55;100845.16;;;17.24;58.15
69245;BME280;56357;52.304;4.870;2024-01-06T02:36:22;100850.50;;;17.35;58.59
69245;BME280;56357;52.304;4.870;2024-01-06T02:38:48;100856.06;;;17.25;58.51
69245;BME280;56357;52.304;4.870;2024-01-06T02:41:14;100864.75;;;17.29;58.54
69245;BME280;56357;52.304;4.870;2024-01-06T02:43:41;100864.78;;;17.34;58.01
69245;BME280;56357;52.304;4.870;2024-01-06T02:46:07;100866.72;;;17.38;58.09
69245;BME280;56357;52.304;4.870;2024-01-06T02:48:33;100863.91;;;17.23;57.38
69245;BME280;56357;52.304;4.870;2024-01-06T02:51:00;100880.66;;;17.13;57.88
69245;BME280;56357;52.304;4.870;2024-01-06T02:53:26;100874.28;;;17.28;58.28
69245;BME280;56357;52.304;4.870;2024-01-06T02:55:52;100886.72;;;17.57;59.33
69245;BME280;56357;52.304;4.870;2024-01-06T02:58:19;100890.28;;;17.42;57.16
69245;BME280;56357;52.304;4.870;2024-01-06T03:00:45;100886.31;;;17.33;58.50
69245;BME280;56357;52.304;4.870;2024-01-06T03:03:11;100895.34;;;17.46;58.03
69245;BME280;56357;52.304;4.870;2024-01-06T03:05:38;100889.47;;;17.52;57.49
69245;BME280;56357;52.304;4.870;2024-01-06T03:08:04;100894.47;;;17.40;57.86
69245;BME280;56357;52.304;4.870;2024-01-06T03:10:31;100892.50;;;17.35;57.94
69245;BME280;56357;52.304;4.870;2024-01-06T03:12:57;100889.41;;;17.37;58.40
69245;BME280;56357;52.304;4.870;2024-01-06T03:15:23;100897.28;;;17.40;58.42
69245;BME280;56357;52.304;4.870;2024-01-06T03:17:50;100898.09;;;17.40;56.99
69245;BME280;56357;52.304;4.870;2024-01-06T03:20:16;100911.25;;;17.35;57.60
69245;BME280;56357;52.304;4.870;2024-01-06T03:22:42;100917.41;;;17.32;58.29
69245;BME280;56357;52.304;4.870;2024-01-06T03:25:09;100910.09;;;17.26;58.16
69245;BME280;56357;52.304;4.870;2024-01-06T03:27:35;100911.22;;;17.25;57.76
69245;BME280;56357;52.304;4.870;2024-01-06T03:30:02;100918.25;;;17.32;58.15
69245;BME280;56357;52.304;4.870;2024-01-06T03:32:28;100912.91;;;17.26;58.37
69245;BME280;56357;52.304;4.870;2024-01-06T03:34:55;100913.19;;;17.29;58.07
69245;BME280;56357;52.304;4.870;2024-01-06T03:37:21;100919.97;;;17.44;58.41
69245;BME280;56357;52.304;4.870;2024-01-06T03:39:48;100926.13;;;17.46;57.37
69245;BME280;56357;52.304;4.870;2024-01-06T03:42:14;100931.13;;;17.33;57.98
69245;BME280;56357;52.304;4.870;2024-01-06T03:44:41;100929.75;;;17.36;58.75
69245;BME280;56357;52.304;4.870;2024-01-06T03:47:07;100933.63;;;17.35;57.71
69245;BME280;56357;52.304;4.870;2024-01-06T03:49:33;100934.22;;;17.37;58.78
69245;BME280;56357;52.304;4.870;2024-01-06T03:52:00;100938.78;;;17.48;59.06
69245;BME280;56357;52.304;4.870;2024-01-06T03:54:26;100934.53;;;17.46;56.58
69245;BME280;56357;52.304;4.870;2024-01-06T03:56:52;100949.50;;;17.19;58.50
69245;BME280;56357;52.304;4.870;2024-01-06T03:59:19;100944.88;;;17.40;57.27
69245;BME280;56357;52.304;4.870;2024-01-06T04:01:45;100946.53;;;17.36;58.09
69245;BME280;56357;52.304;4.870;2024-01-06T04:04:12;100949.84;;;17.28;57.79
69245;BME280;56357;52.304;4.870;2024-01-06T04:06:38;100961.19;;;17.58;57.26
69245;BME280;56357;52.304;4.870;2024-01-06T04:09:05;100962.78;;;17.39;57.87
69245;BME280;56357;52.304;4.870;2024-01-06T04:11:31;100971.22;;;17.44;57.99
69245;BME280;56357;52.304;4.870;2024-01-06T04:13:57;100968.53;;;17.17;57.71
69245;BME280;56357;52.304;4.870;2024-01-06T04:16:26;100975.59;;;17.25;57.42
69245;BME280;56357;52.304;4.870;2024-01-06T04:18:52;100977.81;;;17.23;57.66
69245;BME280;56357;52.304;4.870;2024-01-06T04:21:18;100975.38;;;17.36;58.83
69245;BME280;56357;52.304;4.870;2024-01-06T04:23:45;100979.50;;;17.24;57.38
69245;BME280;56357;52.304;4.870;2024-01-06T04:26:11;100983.50;;;17.43;57.35
69245;BME280;56357;52.304;4.870;2024-01-06T04:28:38;100976.41;;;17.25;57.90
69245;BME280;56357;52.304;4.870;2024-01-06T04:31:04;100981.50;;;17.33;58.53
69245;BME280;56357;52.304;4.870;2024-01-06T04:33:31;100984.00;;;17.30;58.66
69245;BME280;56357;52.304;4.870;2024-01-06T04:35:58;100986.22;;;17.23;57.43
69245;BME280;56357;52.304;4.870;2024-01-06T04:38:26;100989.88;;;17.28;57.54
69245;BME280;56357;52.304;4.870;2024-01-06T04:40:53;100992.06;;;17.21;57.85
69245;BME280;56357;52.304;4.870;2024-01-06T04:43:19;101004.81;;;17.44;58.03
69245;BME280;56357;52.304;4.870;2024-01-06T04:45:45;101000.88;;;17.40;57.25
69245;BME280;56357;52.304;4.870;2024-01-06T04:48:12;100999.94;;;17.24;58.80
69245;BME280;56357;52.304;4.870;2024-01-06T04:50:38;101006.31;;;17.15;58.27
69245;BME280;56357;52.304;4.870;2024-01-06T04:53:04;101000.25;;;17.33;58.08
69245;BME280;56357;52.304;4.870;2024-01-06T04:55:31;101020.84;;;17.12;58.04
69245;BME280;56357;52.304;4.870;2024-01-06T04:57:57;101022.06;;;17.31;58.01
69245;BME280;56357;52.304;4.870;2024-01-06T05:00:24;101013.16;;;17.34;57.57
69245;BME280;56357;52.304;4.870;2024-01-06T05:02:51;101015.69;;;17.40;57.48
69245;BME280;56357;52.304;4.870;2024-01-06T05:05:17;101022.72;;;17.43;57.27
69245;BME280;56357;52.304;4.870;2024-01-06T05:07:43;101017.66;;;17.40;57.39
69245;BME280;56357;52.304;4.870;2024-01-06T05:10:10;101029.59;;;17.20;58.20
69245;BME280;56357;52.304;4.870;2024-01-06T05:12:36;101023.72;;;17.27;57.50
69245;BME280;56357;52.304;4.870;2024-01-06T05:15:03;101033.81;;;17.28;58.02
69245;BME280;56357;52.304;4.870;2024-01-06T05:17:30;101026.50;;;17.22;57.42
69245;BME280;56357;52.304;4.870;2024-01-06T05:19:56;101036.91;;;17.31;57.18
69245;BME280;56357;52.304;4.870;2024-01-06T05:22:23;101040.28;;;17.33;57.34
69245;BME280;56357;52.304;4.870;2024-01-06T05:24:49;101036.84;;;17.21;57.59
69245;BME280;56357;52.304;4.870;2024-01-06T05:27:18;101043.66;;;17.35;57.72
69245;BME280;56357;52.304;4.870;2024-01-06T05:29:44;101041.22;;;17.44;57.15
69245;BME280;56357;52.304;4.870;2024-01-06T05:32:11;101047.31;;;17.36;57.43
69245;BME280;56357;52.304;4.870;2024-01-06T05:34:37;101043.66;;;17.30;59.07
69245;BME280;56357;52.304;4.870;2024-01-06T05:37:03;101047.22;;;17.21;57.01
69245;BME280;56357;52.304;4.870;2024-01-06T05:39:30;101057.38;;;17.32;57.16
69245;BME280;56357;52.304;4.870;2024-01-06T05:41:56;101059.38;;;17.42;57.88
69245;BME280;56357;52.304;4.870;2024-01-06T05:44:21;101058.53;;;17.41;57.58
69245;BME280;56357;52.304;4.870;2024-01-06T05:46:48;101057.44;;;17.47;58.69
69245;BME280;56357;52.304;4.870;2024-01-06T05:49:15;101061.59;;;17.34;57.35
69245;BME280;56357;52.304;4.870;2024-01-06T05:51:45;101065.16;;;17.25;58.15
69245;BME280;56357;52.304;4.870;2024-01-06T05:54:11;101076.16;;;17.36;57.40
69245;BME280;56357;52.304;4.870;2024-01-06T05:56:38;101069.94;;;17.29;56.89
69245;BME280;56357;52.304;4.870;2024-01-06T05:59:04;101082.31;;;17.38;56.82
69245;BME280;56357;52.304;4.870;2024-01-06T06:01:31;101082.28;;;17.33;57.67
69245;BME280;56357;52.304;4.870;2024-01-06T06:03:57;101088.53;;;17.46;57.01
69245;BME280;56357;52.304;4.870;2024-01-06T06:06:23;101096.00;;;17.35;56.94
69245;BME280;56357;52.304;4.870;2024-01-06T06:08:50;101095.97;;;17.25;57.29
69245;BME280;56357;52.304;4.870;2024-01-06T06:11:16;101103.78;;;17.23;57.87
69245;BME280;56357;52.304;4.870;2024-01-06T06:13:43;101109.47;;;17.38;58.14
69245;BME280;56357;52.304;4.870;2024-01-06T06:16:10;101122.03;;;17.30;57.95
69245;BME280;56357;52.304;4.870;2024-01-06T06:18:38;101119.81;;;17.32;57.18
69245;BME280;56357;52.304;4.870;2024-01-06T06:21:06;101132.00;;;17.21;57.64
69245;BME280;56357;52.304;4.870;2024-01-06T06:23:33;101132.28;;;17.20;57.42
69245;BME280;56357;52.304;4.870;2024-01-06T06:26:05;101138.50;;;17.27;57.63
69245;BME280;56357;52.304;4.870;2024-01-06T06:28:32;101135.44;;;17.28;57.53
69245;BME280;56357;52.304;4.870;2024-01-06T06:30:59;101137.66;;;17.26;57.55
69245;BME280;56357;52.304;4.870;2024-01-06T06:33:25;101142.78;;;17.34;58.01
69245;BME280;56357;52.304;4.870;2024-01-06T06:35:52;101148.81;;;17.21;58.46
69245;BME280;56357;52.304;4.870;2024-01-06T06:38:18;101151.69;;;17.31;57.26
69245;BME280;56357;52.304;4.870;2024-01-06T06:40:46;101158.06;;;17.22;57.80
69245;BME280;56357;52.304;4.870;2024-01-06T06:43:14;101157.28;;;17.31;57.79
69245;BME280;56357;52.304;4.870;2024-01-06T06:45:40;101160.84;;;17.22;57.85
69245;BME280;56357;52.304;4.870;2024-01-06T06:48:06;101156.44;;;17.31;57.11
69245;BME280;56357;52.304;4.870;2024-01-06T06:50:33;101163.25;;;17.40;57.08
69245;BME280;56357;52.304;4.870;2024-01-06T06:53:00;101169.25;;;17.22;57.50
69245;BME280;56357;52.304;4.870;2024-01-06T06:55:27;101169.03;;;17.28;58.44
69245;BME280;56357;52.304;4.870;2024-01-06T06:57:53;101174.47;;;17.45;58.12
69245;BME280;56357;52.304;4.870;2024-01-06T07:00:20;101178.06;;;17.40;57.84
69245;BME280;56357;52.304;4.870;2024-01-06T07:02:46;101184.63;;;17.19;57.54
69245;BME280;56357;52.304;4.870;2024-01-06T07:05:12;101184.38;;;17.21;57.48
69245;BME280;56357;52.304;4.870;2024-01-06T07:07:39;101182.19;;;17.28;57.39
69245;BME280;56357;52.304;4.870;2024-01-06T07:10:06;101190.03;;;17.31;57.69
69245;BME280;56357;52.304;4.870;2024-01-06T07:12:32;101197.94;;;17.39;57.49
69245;BME280;56357;52.304;4.870;2024-01-06T07:14:59;101194.81;;;17.30;56.81
69245;BME280;56357;52.304;4.870;2024-01-06T07:17:25;101197.81;;;17.24;57.42
69245;BME280;56357;52.304;4.870;2024-01-06T07:19:51;101201.88;;;17.38;57.40
69245;BME280;56357;52.304;4.870;2024-01-06T07:22:19;101203.44;;;17.29;56.08
69245;BME280;56357;52.304;4.870;2024-01-06T07:24:45;101205.66;;;17.27;57.32
69245;BME280;56357;52.304;4.870;2024-01-06T07:27:11;101216.03;;;17.26;58.04
69245;BME280;56357;52.304;4.870;2024-01-06T07:29:38;101227.00;;;17.33;57.38
69245;BME280;56357;52.304;4.870;2024-01-06T07:32:05;101223.91;;;17.29;57.05
69245;BME280;56357;52.304;4.870;2024-01-06T07:34:31;101220.81;;;17.31;58.44
69245;BME280;56357;52.304;4.870;2024-01-06T07:36:58;101236.28;;;17.38;56.87
69245;BME280;56357;52.304;4.870;2024-01-06T07:39:24;101226.94;;;17.23;56.89
69245;BME280;56357;52.304;4.870;2024-01-06T07:41:51;101233.63;;;17.22;56.84
69245;BME280;56357;52.304;4.870;2024-01-06T07:44:17;101237.91;;;17.29;57.72
69245;BME280;56357;52.304;4.870;2024-01-06T07:46:48;101240.41;;;17.31;57.34
69245;BME280;56357;52.304;4.870;2024-01-06T07:49:14;101242.44;;;17.35;56.84
69245;BME280;56357;52.304;4.870;2024-01-06T07:51:40;101247.94;;;17.25;57.27
69245;BME280;56357;52.304;4.870;2024-01-06T07:54:07;101254.81;;;17.45;56.55
69245;BME280;56357;52.304;4.870;2024-01-06T07:56:34;101267.66;;;17.40;56.92
69245;BME280;56357;52.304;4.870;2024-01-06T07:59:03;101266.19;;;17.33;57.58
69245;BME280;56357;52.304;4.870;2024-01-06T08:01:30;101269.84;;;17.33;56.96
69245;BME280;56357;52.304;4.870;2024-01-06T08:03:57;101275.75;;;17.37;58.34
69245;BME280;56357;52.304;4.870;2024-01-06T08:06:24;101280.59;;;17.47;57.77
69245;BME280;56357;52.304;4.870;2024-01-06T08:08:51;101279.13;;;17.39;57.29
69245;BME280;56357;52.304;4.870;2024-01-06T08:11:17;101286.69;;;17.65;57.24
69245;BME280;56357;52.304;4.870;2024-01-06T08:13:44;101289.34;;;17.50;58.13
69245;BME280;56357;52.304;4.870;2024-01-06T08:16:10;101290.78;;;17.53;56.93
69245;BME280;56357;52.304;4.870;2024-01-06T08:18:36;101292.63;;;17.42;57.67
69245;BME280;56357;52.304;4.870;2024-01-06T08:21:03;101302.66;;;17.38;57.52
69245;BME280;56357;52.304;4.870;2024-01-06T08:23:29;101307.38;;;17.59;58.01
69245;BME280;56357;52.304;4.870;2024-01-06T08:25:56;101306.41;;;17.49;58.36
69245;BME280;56357;52.304;4.870;2024-01-06T08:28:23;101309.63;;;17.35;59.21
69245;BME280;56357;52.304;4.870;2024-01-06T08:30:49;101304.00;;;17.57;58.60
69245;BME280;56357;52.304;4.870;2024-01-06T08:33:16;101306.66;;;17.47;58.40
69245;BME280;56357;52.304;4.870;2024-01-06T08:35:43;101306.34;;;17.44;58.90
69245;BME280;56357;52.304;4.870;2024-01-06T08:38:10;101309.09;;;17.65;58.17
69245;BME280;56357;52.304;4.870;2024-01-06T08:40:36;101320.44;;;17.80;58.33
69245;BME280;56357;52.304;4.870;2024-01-06T08:43:03;101327.19;;;17.31;58.46
69245;BME280;56357;52.304;4.870;2024-01-06T08:45:29;101339.19;;;17.48;59.51
69245;BME280;56357;52.304;4.870;2024-01-06T08:47:56;101332.72;;;17.48;58.38
69245;BME280;56357;52.304;4.870;2024-01-06T08:50:23;101347.91;;;17.52;58.17
69245;BME280;56357;52.304;4.870;2024-01-06T08:52:49;101336.53;;;17.36;59.32
69245;BME280;56357;52.304;4.870;2024-01-06T08:55:15;101345.75;;;17.37;58.28
69245;BME280;56357;52.304;4.870;2024-01-06T08:57:42;101354.72;;;17.12;59.07
69245;BME280;56357;52.304;4.870;2024-01-06T09:00:08;101349.78;;;17.46;59.08
69245;BME280;56357;52.304;4.870;2024-01-06T09:02:35;101353.78;;;17.28;58.91
69245;BME280;56357;52.304;4.870;2024-01-06T09:05:02;101361.19;;;17.66;59.26
69245;BME280;56357;52.304;4.870;2024-01-06T09:07:29;101368.16;;;17.64;58.69
69245;BME280;56357;52.304;4.870;2024-01-06T09:09:55;101365.16;;;17.70;57.02
69245;BME280;56357;52.304;4.870;2024-01-06T09:12:21;101376.03;;;17.40;58.98
69245;BME280;56357;52.304;4.870;2024-01-06T09:14:48;101374.28;;;17.56;57.10
69245;BME280;56357;52.304;4.870;2024-01-06T09:17:14;101376.63;;;17.42;57.84
69245;BME280;56357;52.304;4.870;2024-01-06T09:19:41;101375.59;;;17.48;57.80
69245;BME280;56357;52.304;4.870;2024-01-06T09:22:08;101376.63;;;17.42;58.29
69245;BME280;56357;52.304;4.870;2024-01-06T09:24:34;101385.06;;;17.47;57.50
69245;BME280;56357;52.304;4.870;2024-01-06T09:27:00;101385.53;;;17.61;57.96
69245;BME280;56357;52.304;4.870;2024-01-06T09:29:28;101391.53;;;17.48;56.64
69245;BME280;56357;52.304;4.870;2024-01-06T09:31:54;101396.81;;;17.44;57.55
69245;BME280;56357;52.304;4.870;2024-01-06T09:34:21;101398.09;;;17.58;57.04
69245;BME280;56357;52.304;4.870;2024-01-06T09:36:47;101405.91;;;17.56;57.70
69245;BME280;56357;52.304;4.870;2024-01-06T09:39:13;101405.28;;;17.49;57.75
69245;BME280;56357;52.304;4.870;2024-01-06T09:41:40;101412.63;;;17.55;57.62
69245;BME280;56357;52.304;4.870;2024-01-06T09:44:06;101417.00;;;17.46;56.82
69245;BME280;56357;52.304;4.870;2024-01-06T09:46:34;101416.94;;;17.68;56.62
69245;BME280;56357;52.304;4.870;2024-01-06T09:49:01;101418.81;;;17.57;56.34
69245;BME280;56357;52.304;4.870;2024-01-06T09:51:28;101418.81;;;17.35;57.80
69245;BME280;56357;52.304;4.870;2024-01-06T09:53:58;101425.81;;;17.60;56.55
69245;BME280;56357;52.304;4.870;2024-01-06T09:56:26;101434.63;;;17.47;57.81
69245;BME280;56357;52.304;4.870;2024-01-06T09:58:53;101436.94;;;17.50;56.54
69245;BME280;56357;52.304;4.870;2024-01-06T10:01:20;101446.44;;;17.49;56.68
69245;BME280;56357;52.304;4.870;2024-01-06T10:03:47;101444.16;;;17.67;57.16
69245;BME280;56357;52.304;4.870;2024-01-06T10:06:14;101444.34;;;17.61;56.30
69245;BME280;56357;52.304;4.870;2024-01-06T10:08:46;101449.22;;;17.49;56.47
69245;BME280;56357;52.304;4.870;2024-01-06T10:11:14;101454.41;;;17.62;56.64
69245;BME280;56357;52.304;4.870;2024-01-06T10:13:40;101460.38;;;17.65;56.12
69245;BME280;56357;52.304;4.870;2024-01-06T10:16:07;101452.28;;;17.69;56.79
69245;BME280;56357;52.304;4.870;2024-01-06T10:18:34;101457.03;;;17.68;57.51
69245;BME280;56357;52.304;4.870;2024-01-06T10:21:04;101459.97;;;17.57;56.65
69245;BME280;56357;52.304;4.870;2024-01-06T10:23:32;101459.19;;;17.61;57.02
69245;BME280;56357;52.304;4.870;2024-01-06T10:25:59;101460.41;;;17.70;56.40
69245;BME280;56357;52.304;4.870;2024-01-06T10:28:26;101467.59;;;17.61;56.15
69245;BME280;56357;52.304;4.870;2024-01-06T10:30:54;101460.41;;;17.70;56.82
69245;BME280;56357;52.304;4.870;2024-01-06T10:33:22;101478.13;;;17.54;56.34
69245;BME280;56357;52.304;4.870;2024-01-06T10:35:49;101478.81;;;17.61;56.72
69245;BME280;56357;52.304;4.870;2024-01-06T10:38:15;101469.22;;;17.57;57.16
69245;BME280;56357;52.304;4.870;2024-01-06T10:40:58;101467.47;;;17.51;57.25
69245;BME280;56357;52.304;4.870;2024-01-06T10:43:26;101486.03;;;17.57;58.80
69245;BME280;56357;52.304;4.870;2024-01-06T10:45:55;101484.72;;;17.65;56.69
69245;BME280;56357;52.304;4.870;2024-01-06T10:48:25;101478.69;;;17.51;57.74
69245;BME280;56357;52.304;4.870;2024-01-06T10:50:53;101479.03;;;17.60;57.44
69245;BME280;56357;52.304;4.870;2024-01-06T10:53:21;101481.19;;;17.74;57.79
69245;BME280;56357;52.304;4.870;2024-01-06T10:55:49;101479.38;;;17.63;57.32
69245;BME280;56357;52.304;4.870;2024-01-06T10:58:17;101484.09;;;17.58;58.66
69245;BME280;56357;52.304;4.870;2024-01-06T11:00:43;101484.28;;;17.51;57.98
69245;BME280;56357;52.304;4.870;2024-01-06T11:03:10;101495.84;;;17.60;58.12
69245;BME280;56357;52.304;4.870;2024-01-06T11:05:36;101494.06;;;17.75;57.62
69245;BME280;56357;52.304;4.870;2024-01-06T11:08:04;101492.28;;;17.64;58.15
69245;BME280;56357;52.304;4.870;2024-01-06T11:10:31;101493.31;;;17.58;57.00
69245;BME280;56357;52.304;4.870;2024-01-06T11:13:22;101493.31;;;17.58;57.25
69245;BME280;56357;52.304;4.870;2024-01-06T11:15:50;101505.22;;;17.70;57.22
69245;BME280;56357;52.304;4.870;2024-01-06T11:24:13;101504.31;;;17.86;57.71
69245;BME280;56357;52.304;4.870;2024-01-06T11:26:44;101504.31;;;17.65;57.38
69245;BME280;56357;52.304;4.870;2024-01-06T11:29:11;101507.25;;;17.53;57.50
69245;BME280;56357;52.304;4.870;2024-01-06T11:31:37;101499.22;;;17.62;57.67
69245;BME280;56357;52.304;4.870;2024-01-06T11:34:15;101511.34;;;17.46;58.21
69245;BME280;56357;52.304;4.870;2024-01-06T11:36:44;101514.81;;;17.53;57.08
69245;BME280;56357;52.304;4.870;2024-01-06T11:39:37;101511.09;;;17.69;56.81
69245;BME280;56357;52.304;4.870;2024-01-06T11:42:04;101510.84;;;17.70;56.02
69245;BME280;56357;52.304;4.870;2024-01-06T11:44:34;101504.31;;;17.86;56.76
69245;BME280;56357;52.304;4.870;2024-01-06T11:47:04;101509.84;;;17.81;55.92
69245;BME280;56357;52.304;4.870;2024-01-06T11:49:31;101510.28;;;17.73;56.55
69245;BME280;56357;52.304;4.870;2024-01-06T11:51:58;101512.88;;;18.01;56.03
69245;BME280;56357;52.304;4.870;2024-01-06T11:54:24;101510.00;;;17.96;55.71
69245;BME280;56357;52.304;4.870;2024-01-06T11:56:51;101513.63;;;17.70;55.65
69245;BME280;56357;52.304;4.870;2024-01-06T11:59:19;101517.88;;;17.73;56.03
69245;BME280;56357;52.304;4.870;2024-01-06T12:01:46;101519.19;;;17.65;57.33
69245;BME280;56357;52.304;4.870;2024-01-06T12:04:15;101514.22;;;17.72;56.88
69245;BME280;56357;52.304;4.870;2024-01-06T12:06:42;101516.59;;;17.85;56.81
69245;BME280;56357;52.304;4.870;2024-01-06T12:09:12;101508.44;;;17.57;57.84
69245;BME280;56357;52.304;4.870;2024-01-06T12:11:41;101512.00;;;17.74;57.11
69245;BME280;56357;52.304;4.870;2024-01-06T12:14:10;101523.91;;;17.43;57.90
69245;BME280;56357;52.304;4.870;2024-01-06T12:16:36;101511.59;;;17.66;57.19
69245;BME280;56357;52.304;4.870;2024-01-06T12:19:03;101525.47;;;17.77;57.98
69245;BME280;56357;52.304;4.870;2024-01-06T12:21:30;101519.25;;;17.70;57.51
69245;BME280;56357;52.304;4.870;2024-01-06T12:24:16;101523.34;;;17.84;57.00
69245;BME280;56357;52.304;4.870;2024-01-06T12:26:45;101521.69;;;17.88;57.23
69245;BME280;56357;52.304;4.870;2024-01-06T12:29:13;101527.94;;;17.95;57.26
69245;BME280;56357;52.304;4.870;2024-01-06T12:31:40;101534.72;;;17.99;56.05
69245;BME280;56357;52.304;4.870;2024-01-06T12:34:07;101528.88;;;17.79;57.92
69245;BME280;56357;52.304;4.870;2024-01-06T12:36:35;101521.50;;;17.73;57.09
69245;BME280;56357;52.304;4.870;2024-01-06T12:39:03;101530.13;;;17.67;58.25
69245;BME280;56357;52.304;4.870;2024-01-06T12:41:30;101528.69;;;17.64;56.29
69245;BME280;56357;52.304;4.870;2024-01-06T12:43:58;101532.59;;;17.63;57.01
69245;BME280;56357;52.304;4.870;2024-01-06T12:46:26;101543.28;;;17.88;58.38
69245;BME280;56357;52.304;4.870;2024-01-06T12:48:52;101536.94;;;17.54;57.71
69245;BME280;56357;52.304;4.870;2024-01-06T12:51:18;101550.34;;;17.95;57.08
69245;BME280;56357;52.304;4.870;2024-01-06T12:53:45;101546.63;;;18.11;57.52